sensor_id;sensor_type;location;lat;lon;timestamp;P1;durP1;ratioP1;P2;durP2;ratioP2
43297;SDS011;28892;55.640;37.532;2022-08-19T00:01:24;8.95;;;4.65;;
43297;SDS011;28892;55.640;37.532;2022-08-19T00:03:52;8.88;;;4.30;;
43297;SDS011;28892;55.640;37.532;2022-08-19T00:06:18;7.35;;;4.22;;
43297;SDS011;28892;55.640;37.532;2022-08-19T00:08:43;6.45;;;4.53;;
43297;SDS011;28892;55.640;37.532;2022-08-19T00:11:10;7.82;;;4.50;;
43297;SDS011;28892;55.640;37.532;2022-08-19T00:13:36;6.03;;;4.38;;
43297;SDS011;28892;55.640;37.532;2022-08-19T00:16:04;8.10;;;4.70;;
43297;SDS011;28892;55.640;37.532;2022-08-19T00:18:31;8.50;;;4.85;;
43297;SDS011;28892;55.640;37.532;2022-08-19T00:20:57;8.90;;;5.10;;
43297;SDS011;28892;55.640;37.532;2022-08-19T00:23:24;8.73;;;4.82;;
43297;SDS011;28892;55.640;37.532;2022-08-19T00:25:51;10.07;;;4.72;;
43297;SDS011;28892;55.640;37.532;2022-08-19T00:28:17;5.68;;;4.50;;
43297;SDS011;28892;55.640;37.532;2022-08-19T00:30:44;7.65;;;4.97;;
43297;SDS011;28892;55.640;37.532;2022-08-19T00:33:10;13.15;;;4.90;;
43297;SDS011;28892;55.640;37.532;2022-08-19T00:35:36;12.70;;;5.35;;
43297;SDS011;28892;55.640;37.532;2022-08-19T00:38:03;7.18;;;5.00;;
43297;SDS011;28892;55.640;37.532;2022-08-19T00:40:31;9.75;;;4.95;;
43297;SDS011;28892;55.640;37.532;2022-08-19T00:42:58;8.77;;;4.68;;
43297;SDS011;28892;55.640;37.532;2022-08-19T00:45:25;8.85;;;4.90;;
43297;SDS011;28892;55.640;37.532;2022-08-19T00:47:52;9.05;;;5.20;;
43297;SDS011;28892;55.640;37.532;2022-08-19T00:50:19;9.55;;;4.78;;
43297;SDS011;28892;55.640;37.532;2022-08-19T00:52:47;11.35;;;5.13;;
43297;SDS011;28892;55.640;37.532;2022-08-19T00:55:18;9.68;;;5.00;;
43297;SDS011;28892;55.640;37.532;2022-08-19T00:57:48;8.48;;;5.22;;
43297;SDS011;28892;55.640;37.532;2022-08-19T01:00:20;7.97;;;4.93;;
43297;SDS011;28892;55.640;37.532;2022-08-19T01:02:47;7.10;;;5.28;;
43297;SDS011;28892;55.640;37.532;2022-08-19T01:05:14;8.27;;;4.85;;
43297;SDS011;28892;55.640;37.532;2022-08-19T01:07:46;7.45;;;5.35;;
43297;SDS011;28892;55.640;37.532;2022-08-19T01:10:18;10.77;;;4.80;;
43297;SDS011;28892;55.640;37.532;2022-08-19T01:12:46;10.38;;;5.65;;
43297;SDS011;28892;55.640;37.532;2022-08-19T01:15:14;11.55;;;5.55;;
43297;SDS011;28892;55.640;37.532;2022-08-19T01:17:43;9.05;;;5.00;;
43297;SDS011;28892;55.640;37.532;2022-08-19T01:20:14;8.07;;;4.82;;
43297;SDS011;28892;55.640;37.532;2022-08-19T01:22:44;7.47;;;5.05;;
43297;SDS011;28892;55.640;37.532;2022-08-19T01:25:13;8.57;;;5.13;;
43297;SDS011;28892;55.640;37.532;2022-08-19T01:27:42;10.77;;;5.00;;
43297;SDS011;28892;55.640;37.532;2022-08-19T01:30:14;10.77;;;4.80;;
43297;SDS011;28892;55.640;37.532;2022-08-19T01:32:43;12.35;;;5.55;;
43297;SDS011;28892;55.640;37.532;2022-08-19T01:35:10;9.68;;;4.78;;
43297;SDS011;28892;55.640;37.532;2022-08-19T01:40:09;7.10;;;5.05;;
43297;SDS011;28892;55.640;37.532;2022-08-19T01:42:35;7.53;;;4.30;;
43297;SDS011;28892;55.640;37.532;2022-08-19T01:45:03;11.68;;;5.53;;
43297;SDS011;28892;55.640;37.532;2022-08-19T01:47:29;8.02;;;4.38;;
43297;SDS011;28892;55.640;37.532;2022-08-19T01:49:55;9.75;;;4.53;;
43297;SDS011;28892;55.640;37.532;2022-08-19T01:52:20;10.43;;;4.70;;
43297;SDS011;28892;55.640;37.532;2022-08-19T01:54:46;11.27;;;4.22;;
43297;SDS011;28892;55.640;37.532;2022-08-19T01:57:12;7.53;;;4.57;;
43297;SDS011;28892;55.640;37.532;2022-08-19T01:59:40;8.80;;;4.30;;
43297;SDS011;28892;55.640;37.532;2022-08-19T02:02:07;8.93;;;4.03;;
43297;SDS011;28892;55.640;37.532;2022-08-19T02:04:33;7.68;;;3.90;;
43297;SDS011;28892;55.640;37.532;2022-08-19T02:07:00;6.65;;;3.88;;
43297;SDS011;28892;55.640;37.532;2022-08-19T02:09:26;8.43;;;3.83;;
43297;SDS011;28892;55.640;37.532;2022-08-19T02:11:52;5.13;;;4.18;;
43297;SDS011;28892;55.640;37.532;2022-08-19T02:14:18;8.77;;;4.10;;
43297;SDS011;28892;55.640;37.532;2022-08-19T02:16:44;8.40;;;3.70;;
43297;SDS011;28892;55.640;37.532;2022-08-19T02:19:09;4.28;;;3.50;;
43297;SDS011;28892;55.640;37.532;2022-08-19T02:21:35;5.65;;;4.30;;
43297;SDS011;28892;55.640;37.532;2022-08-19T02:24:01;6.53;;;4.05;;
43297;SDS011;28892;55.640;37.532;2022-08-19T02:26:27;6.72;;;4.10;;
43297;SDS011;28892;55.640;37.532;2022-08-19T02:28:54;6.30;;;4.05;;
43297;SDS011;28892;55.640;37.532;2022-08-19T02:31:21;6.85;;;4.35;;
43297;SDS011;28892;55.640;37.532;2022-08-19T02:33:48;6.50;;;4.35;;
43297;SDS011;28892;55.640;37.532;2022-08-19T02:36:16;8.20;;;4.18;;
43297;SDS011;28892;55.640;37.532;2022-08-19T02:38:42;6.00;;;4.65;;
43297;SDS011;28892;55.640;37.532;2022-08-19T02:41:13;6.85;;;4.15;;
43297;SDS011;28892;55.640;37.532;2022-08-19T02:43:42;8.45;;;4.40;;
43297;SDS011;28892;55.640;37.532;2022-08-19T02:46:18;12.15;;;4.72;;
43297;SDS011;28892;55.640;37.532;2022-08-19T02:48:49;7.80;;;4.40;;
43297;SDS011;28892;55.640;37.532;2022-08-19T02:51:23;7.60;;;4.53;;
43297;SDS011;28892;55.640;37.532;2022-08-19T02:53:51;11.98;;;4.60;;
43297;SDS011;28892;55.640;37.532;2022-08-19T02:56:17;12.40;;;4.97;;
43297;SDS011;28892;55.640;37.532;2022-08-19T02:58:44;7.78;;;4.13;;
43297;SDS011;28892;55.640;37.532;2022-08-19T03:01:10;7.07;;;4.93;;
43297;SDS011;28892;55.640;37.532;2022-08-19T03:03:44;8.93;;;4.78;;
43297;SDS011;28892;55.640;37.532;2022-08-19T03:06:13;8.73;;;3.90;;
43297;SDS011;28892;55.640;37.532;2022-08-19T03:08:41;7.47;;;4.38;;
43297;SDS011;28892;55.640;37.532;2022-08-19T03:11:19;9.65;;;4.55;;
43297;SDS011;28892;55.640;37.532;2022-08-19T03:13:46;9.95;;;4.90;;
43297;SDS011;28892;55.640;37.532;2022-08-19T03:16:14;10.48;;;4.80;;
43297;SDS011;28892;55.640;37.532;2022-08-19T03:18:41;10.50;;;4.32;;
43297;SDS011;28892;55.640;37.532;2022-08-19T03:21:07;8.98;;;4.70;;
43297;SDS011;28892;55.640;37.532;2022-08-19T03:23:33;10.48;;;4.80;;
43297;SDS011;28892;55.640;37.532;2022-08-19T03:26:02;8.73;;;4.63;;
43297;SDS011;28892;55.640;37.532;2022-08-19T03:28:30;15.05;;;5.00;;
43297;SDS011;28892;55.640;37.532;2022-08-19T03:31:02;7.00;;;4.57;;
43297;SDS011;28892;55.640;37.532;2022-08-19T03:33:34;10.05;;;5.00;;
43297;SDS011;28892;55.640;37.532;2022-08-19T03:36:22;7.95;;;4.53;;
43297;SDS011;28892;55.640;37.532;2022-08-19T03:38:57;9.30;;;4.85;;
43297;SDS011;28892;55.640;37.532;2022-08-19T03:41:25;10.07;;;4.40;;
43297;SDS011;28892;55.640;37.532;2022-08-19T03:43:56;10.15;;;4.60;;
43297;SDS011;28892;55.640;37.532;2022-08-19T03:46:27;8.52;;;5.03;;
43297;SDS011;28892;55.640;37.532;2022-08-19T03:48:55;7.72;;;4.65;;
43297;SDS011;28892;55.640;37.532;2022-08-19T03:51:30;7.43;;;4.65;;
43297;SDS011;28892;55.640;37.532;2022-08-19T03:54:04;8.57;;;4.80;;
43297;SDS011;28892;55.640;37.532;2022-08-19T03:56:33;9.02;;;4.60;;
43297;SDS011;28892;55.640;37.532;2022-08-19T03:59:00;9.43;;;4.65;;
43297;SDS011;28892;55.640;37.532;2022-08-19T04:01:27;8.18;;;4.70;;
43297;SDS011;28892;55.640;37.532;2022-08-19T04:03:53;9.60;;;4.93;;
43297;SDS011;28892;55.640;37.532;2022-08-19T04:06:21;9.48;;;5.03;;
43297;SDS011;28892;55.640;37.532;2022-08-19T04:08:52;7.17;;;5.00;;
43297;SDS011;28892;55.640;37.532;2022-08-19T04:11:25;6.88;;;5.00;;
43297;SDS011;28892;55.640;37.532;2022-08-19T04:13:53;13.70;;;4.88;;
43297;SDS011;28892;55.640;37.532;2022-08-19T04:16:20;8.77;;;4.72;;
43297;SDS011;28892;55.640;37.532;2022-08-19T04:18:48;9.35;;;4.70;;
43297;SDS011;28892;55.640;37.532;2022-08-19T04:21:18;6.95;;;4.80;;
43297;SDS011;28892;55.640;37.532;2022-08-19T04:23:49;8.25;;;5.00;;
43297;SDS011;28892;55.640;37.532;2022-08-19T04:26:15;12.57;;;5.20;;
43297;SDS011;28892;55.640;37.532;2022-08-19T04:28:46;11.17;;;5.23;;
43297;SDS011;28892;55.640;37.532;2022-08-19T04:31:17;8.00;;;4.85;;
43297;SDS011;28892;55.640;37.532;2022-08-19T04:33:45;9.85;;;5.07;;
43297;SDS011;28892;55.640;37.532;2022-08-19T04:36:18;7.80;;;4.63;;
43297;SDS011;28892;55.640;37.532;2022-08-19T04:38:50;8.55;;;4.43;;
43297;SDS011;28892;55.640;37.532;2022-08-19T04:41:18;8.50;;;4.90;;
43297;SDS011;28892;55.640;37.532;2022-08-19T04:44:02;11.38;;;4.78;;
43297;SDS011;28892;55.640;37.532;2022-08-19T04:46:29;10.57;;;;;
43297;SDS011;28892;55.640;37.532;2022-08-19T04:48:57;8.50;;;4.93;;
43297;SDS011;28892;55.640;37.532;2022-08-19T04:51:24;13.70;;;4.82;;
43297;SDS011;28892;55.640;37.532;2022-08-19T04:53:50;11.57;;;4.78;;
43297;SDS011;28892;55.640;37.532;2022-08-19T04:56:17;11.13;;;5.63;;
43297;SDS011;28892;55.640;37.532;2022-08-19T04:58:46;9.73;;;4.90;;
43297;SDS011;28892;55.640;37.532;2022-08-19T05:01:23;7.07;;;5.18;;
43297;SDS011;28892;55.640;37.532;2022-08-19T05:03:51;15.35;;;5.50;;
43297;SDS011;28892;55.640;37.532;2022-08-19T05:06:18;8.63;;;4.97;;
43297;SDS011;28892;55.640;37.532;2022-08-19T05:08:45;9.48;;;5.10;;
43297;SDS011;28892;55.640;37.532;2022-08-19T05:11:14;8.65;;;5.47;;
43297;SDS011;28892;55.640;37.532;2022-08-19T05:13:47;10.68;;;5.28;;
43297;SDS011;28892;55.640;37.532;2022-08-19T05:16:14;12.32;;;5.30;;
43297;SDS011;28892;55.640;37.532;2022-08-19T05:18:41;12.57;;;5.68;;
43297;SDS011;28892;55.640;37.532;2022-08-19T05:21:26;11.98;;;6.20;;
43297;SDS011;28892;55.640;37.532;2022-08-19T05:24:11;9.35;;;5.90;;
43297;SDS011;28892;55.640;37.532;2022-08-19T05:26:38;11.63;;;5.45;;
43297;SDS011;28892;55.640;37.532;2022-08-19T05:29:06;10.82;;;6.05;;
43297;SDS011;28892;55.640;37.532;2022-08-19T05:31:34;13.32;;;6.90;;
43297;SDS011;28892;55.640;37.532;2022-08-19T05:34:02;9.38;;;5.93;;
43297;SDS011;28892;55.640;37.532;2022-08-19T05:36:29;9.48;;;5.72;;
43297;SDS011;28892;55.640;37.532;2022-08-19T05:39:06;10.00;;;6.03;;
43297;SDS011;28892;55.640;37.532;2022-08-19T05:41:41;9.70;;;5.90;;
43297;SDS011;28892;55.640;37.532;2022-08-19T05:44:23;10.13;;;6.22;;
43297;SDS011;28892;55.640;37.532;2022-08-19T05:46:59;13.85;;;6.13;;
43297;SDS011;28892;55.640;37.532;2022-08-19T05:49:26;9.93;;;5.70;;
43297;SDS011;28892;55.640;37.532;2022-08-19T05:51:52;13.30;;;6.25;;
43297;SDS011;28892;55.640;37.532;2022-08-19T05:54:20;12.07;;;5.63;;
43297;SDS011;28892;55.640;37.532;2022-08-19T05:56:49;11.65;;;5.55;;
43297;SDS011;28892;55.640;37.532;2022-08-19T05:59:16;9.80;;;6.25;;
43297;SDS011;28892;55.640;37.532;2022-08-19T06:01:43;12.20;;;5.60;;
43297;SDS011;28892;55.640;37.532;2022-08-19T06:04:11;11.30;;;5.60;;
43297;SDS011;28892;55.640;37.532;2022-08-19T06:06:39;11.90;;;5.95;;
43297;SDS011;28892;55.640;37.532;2022-08-19T06:09:05;11.75;;;5.63;;
43297;SDS011;28892;55.640;37.532;2022-08-19T06:11:41;10.55;;;5.43;;
43297;SDS011;28892;55.640;37.532;2022-08-19T06:14:13;8.70;;;5.80;;
43297;SDS011;28892;55.640;37.532;2022-08-19T06:16:44;11.65;;;5.68;;
43297;SDS011;28892;55.640;37.532;2022-08-19T06:19:11;12.35;;;5.65;;
43297;SDS011;28892;55.640;37.532;2022-08-19T06:21:39;12.15;;;5.97;;
43297;SDS011;28892;55.640;37.532;2022-08-19T06:24:07;13.73;;;6.10;;
43297;SDS011;28892;55.640;37.532;2022-08-19T06:26:35;9.38;;;5.70;;
43297;SDS011;28892;55.640;37.532;2022-08-19T06:29:04;9.82;;;5.47;;
43297;SDS011;28892;55.640;37.532;2022-08-19T06:31:32;8.30;;;5.30;;
43297;SDS011;28892;55.640;37.532;2022-08-19T06:34:00;12.48;;;5.63;;
43297;SDS011;28892;55.640;37.532;2022-08-19T06:36:31;8.10;;;5.68;;
43297;SDS011;28892;55.640;37.532;2022-08-19T06:39:10;10.05;;;5.35;;
43297;SDS011;28892;55.640;37.532;2022-08-19T06:41:43;14.90;;;6.18;;
43297;SDS011;28892;55.640;37.532;2022-08-19T06:44:16;11.48;;;6.03;;
43297;SDS011;28892;55.640;37.532;2022-08-19T06:46:43;11.50;;;5.60;;
43297;SDS011;28892;55.640;37.532;2022-08-19T06:49:09;12.13;;;5.80;;
43297;SDS011;28892;55.640;37.532;2022-08-19T06:51:40;9.20;;;4.82;;
43297;SDS011;28892;55.640;37.532;2022-08-19T06:54:13;8.73;;;5.60;;
43297;SDS011;28892;55.640;37.532;2022-08-19T06:56:40;10.23;;;5.10;;
43297;SDS011;28892;55.640;37.532;2022-08-19T06:59:07;11.25;;;5.25;;
43297;SDS011;28892;55.640;37.532;2022-08-19T07:01:39;8.68;;;4.93;;
43297;SDS011;28892;55.640;37.532;2022-08-19T07:04:08;11.13;;;5.13;;
43297;SDS011;28892;55.640;37.532;2022-08-19T07:06:34;9.85;;;4.70;;
43297;SDS011;28892;55.640;37.532;2022-08-19T07:09:03;10.60;;;4.82;;
43297;SDS011;28892;55.640;37.532;2022-08-19T07:11:30;7.70;;;4.82;;
43297;SDS011;28892;55.640;37.532;2022-08-19T07:13:56;9.32;;;5.50;;
43297;SDS011;28892;55.640;37.532;2022-08-19T07:16:21;9.38;;;5.53;;
43297;SDS011;28892;55.640;37.532;2022-08-19T07:18:48;9.82;;;5.47;;
43297;SDS011;28892;55.640;37.532;2022-08-19T07:21:22;7.88;;;5.30;;
43297;SDS011;28892;55.640;37.532;2022-08-19T07:23:58;9.90;;;5.40;;
43297;SDS011;28892;55.640;37.532;2022-08-19T07:26:26;8.40;;;4.88;;
43297;SDS011;28892;55.640;37.532;2022-08-19T07:28:54;12.23;;;5.15;;
43297;SDS011;28892;55.640;37.532;2022-08-19T07:31:21;10.95;;;5.38;;
43297;SDS011;28892;55.640;37.532;2022-08-19T07:33:50;12.13;;;5.22;;
43297;SDS011;28892;55.640;37.532;2022-08-19T07:36:18;10.52;;;4.82;;
43297;SDS011;28892;55.640;37.532;2022-08-19T07:38:50;8.50;;;5.32;;
43297;SDS011;28892;55.640;37.532;2022-08-19T07:41:19;8.73;;;4.57;;
43297;SDS011;28892;55.640;37.532;2022-08-19T07:43:48;6.60;;;3.88;;
43297;SDS011;28892;55.640;37.532;2022-08-19T07:46:14;14.85;;;4.88;;
43297;SDS011;28892;55.640;37.532;2022-08-19T07:48:42;13.30;;;4.20;;
43297;SDS011;28892;55.640;37.532;2022-08-19T07:51:14;5.72;;;3.47;;
43297;SDS011;28892;55.640;37.532;2022-08-19T07:53:42;8.18;;;4.18;;
43297;SDS011;28892;55.640;37.532;2022-08-19T07:56:09;9.32;;;3.90;;
43297;SDS011;28892;55.640;37.532;2022-08-19T07:58:38;5.95;;;4.03;;
43297;SDS011;28892;55.640;37.532;2022-08-19T08:01:06;7.88;;;3.80;;
43297;SDS011;28892;55.640;37.532;2022-08-19T08:03:35;6.70;;;3.80;;
43297;SDS011;28892;55.640;37.532;2022-08-19T08:06:20;7.28;;;3.42;;
43297;SDS011;28892;55.640;37.532;2022-08-19T08:09:04;10.25;;;3.65;;
43297;SDS011;28892;55.640;37.532;2022-08-19T08:11:41;8.75;;;3.50;;
43297;SDS011;28892;55.640;37.532;2022-08-19T08:14:14;8.90;;;4.30;;
43297;SDS011;28892;55.640;37.532;2022-08-19T08:16:47;11.50;;;3.83;;
43297;SDS011;28892;55.640;37.532;2022-08-19T08:19:16;10.82;;;3.90;;
43297;SDS011;28892;55.640;37.532;2022-08-19T08:21:44;7.30;;;3.90;;
43297;SDS011;28892;55.640;37.532;2022-08-19T08:24:10;9.82;;;3.53;;
43297;SDS011;28892;55.640;37.532;2022-08-19T08:26:36;9.60;;;4.13;;
43297;SDS011;28892;55.640;37.532;2022-08-19T08:29:02;10.98;;;4.30;;
43297;SDS011;28892;55.640;37.532;2022-08-19T08:31:28;9.98;;;4.32;;
43297;SDS011;28892;55.640;37.532;2022-08-19T08:33:54;6.82;;;3.58;;
43297;SDS011;28892;55.640;37.532;2022-08-19T08:36:20;8.93;;;4.32;;
43297;SDS011;28892;55.640;37.532;2022-08-19T08:38:45;8.32;;;4.15;;
43297;SDS011;28892;55.640;37.532;2022-08-19T08:43:48;8.18;;;4.90;;
43297;SDS011;28892;55.640;37.532;2022-08-19T08:52:04;8.27;;;3.35;;
43297;SDS011;28892;55.640;37.532;2022-08-19T08:54:41;7.75;;;3.60;;
43297;SDS011;28892;55.640;37.532;2022-08-19T08:57:13;8.70;;;3.90;;
43297;SDS011;28892;55.640;37.532;2022-08-19T08:59:49;10.32;;;3.72;;
43297;SDS011;28892;55.640;37.532;2022-08-19T09:02:18;6.28;;;3.03;;
43297;SDS011;28892;55.640;37.532;2022-08-19T09:04:44;6.28;;;3.75;;
43297;SDS011;28892;55.640;37.532;2022-08-19T09:07:18;8.13;;;2.90;;
43297;SDS011;28892;55.640;37.532;2022-08-19T09:10:49;7.72;;;3.15;;
43297;SDS011;28892;55.640;37.532;2022-08-19T09:15:34;8.15;;;3.33;;
43297;SDS011;28892;55.640;37.532;2022-08-19T09:18:05;7.63;;;3.05;;
43297;SDS011;28892;55.640;37.532;2022-08-19T09:20:33;6.45;;;3.38;;
43297;SDS011;28892;55.640;37.532;2022-08-19T09:22:59;5.43;;;2.92;;
43297;SDS011;28892;55.640;37.532;2022-08-19T09:25:25;6.05;;;3.30;;
43297;SDS011;28892;55.640;37.532;2022-08-19T09:27:51;11.98;;;3.83;;
43297;SDS011;28892;55.640;37.532;2022-08-19T09:30:20;4.35;;;3.35;;
43297;SDS011;28892;55.640;37.532;2022-08-19T09:32:47;8.98;;;3.53;;
43297;SDS011;28892;55.640;37.532;2022-08-19T09:35:13;7.78;;;3.63;;
43297;SDS011;28892;55.640;37.532;2022-08-19T09:37:40;7.70;;;3.58;;
43297;SDS011;28892;55.640;37.532;2022-08-19T09:40:08;9.50;;;4.20;;
43297;SDS011;28892;55.640;37.532;2022-08-19T09:42:36;7.60;;;3.88;;
43297;SDS011;28892;55.640;37.532;2022-08-19T09:45:02;11.88;;;4.03;;
43297;SDS011;28892;55.640;37.532;2022-08-19T09:47:29;7.43;;;3.20;;
43297;SDS011;28892;55.640;37.532;2022-08-19T09:49:54;7.78;;;3.90;;
43297;SDS011;28892;55.640;37.532;2022-08-19T09:52:20;6.15;;;3.58;;
43297;SDS011;28892;55.640;37.532;2022-08-19T09:54:46;7.10;;;3.40;;
43297;SDS011;28892;55.640;37.532;2022-08-19T09:57:12;9.52;;;3.50;;
43297;SDS011;28892;55.640;37.532;2022-08-19T09:59:38;7.57;;;3.03;;
43297;SDS011;28892;55.640;37.532;2022-08-19T10:02:04;6.30;;;3.05;;
43297;SDS011;28892;55.640;37.532;2022-08-19T10:04:30;4.97;;;3.03;;
43297;SDS011;28892;55.640;37.532;2022-08-19T10:07:15;7.95;;;2.95;;
43297;SDS011;28892;55.640;37.532;2022-08-19T10:09:41;6.45;;;2.90;;
43297;SDS011;28892;55.640;37.532;2022-08-19T10:12:07;8.95;;;3.08;;
43297;SDS011;28892;55.640;37.532;2022-08-19T10:14:33;9.32;;;3.22;;
43297;SDS011;28892;55.640;37.532;2022-08-19T10:17:00;8.57;;;3.03;;
43297;SDS011;28892;55.640;37.532;2022-08-19T10:19:27;8.75;;;3.45;;
43297;SDS011;28892;55.640;37.532;2022-08-19T10:21:57;11.18;;;2.95;;
43297;SDS011;28892;55.640;37.532;2022-08-19T10:24:23;8.68;;;3.50;;
43297;SDS011;28892;55.640;37.532;2022-08-19T10:26:51;12.05;;;2.88;;
43297;SDS011;28892;55.640;37.532;2022-08-19T10:29:17;7.45;;;2.90;;
43297;SDS011;28892;55.640;37.532;2022-08-19T10:31:42;15.55;;;2.97;;
43297;SDS011;28892;55.640;37.532;2022-08-19T10:34:08;5.70;;;2.53;;
43297;SDS011;28892;55.640;37.532;2022-08-19T10:36:35;8.70;;;3.10;;
43297;SDS011;28892;55.640;37.532;2022-08-19T10:39:03;8.90;;;2.85;;
43297;SDS011;28892;55.640;37.532;2022-08-19T10:41:32;10.25;;;2.80;;
43297;SDS011;28892;55.640;37.532;2022-08-19T10:44:01;7.88;;;2.80;;
43297;SDS011;28892;55.640;37.532;2022-08-19T10:46:30;8.20;;;3.22;;
43297;SDS011;28892;55.640;37.532;2022-08-19T10:48:58;9.63;;;2.80;;
43297;SDS011;28892;55.640;37.532;2022-08-19T10:51:25;4.95;;;2.60;;
43297;SDS011;28892;55.640;37.532;2022-08-19T10:54:10;9.00;;;2.60;;
43297;SDS011;28892;55.640;37.532;2022-08-19T10:56:35;7.57;;;3.17;;
43297;SDS011;28892;55.640;37.532;2022-08-19T10:59:21;5.63;;;2.53;;
43297;SDS011;28892;55.640;37.532;2022-08-19T11:01:49;8.90;;;3.53;;
43297;SDS011;28892;55.640;37.532;2022-08-19T11:04:16;6.07;;;2.60;;
43297;SDS011;28892;55.640;37.532;2022-08-19T11:06:43;6.43;;;2.80;;
43297;SDS011;28892;55.640;37.532;2022-08-19T11:09:12;5.90;;;2.60;;
43297;SDS011;28892;55.640;37.532;2022-08-19T11:11:40;8.07;;;3.10;;
43297;SDS011;28892;55.640;37.532;2022-08-19T11:14:11;8.15;;;3.15;;
43297;SDS011;28892;55.640;37.532;2022-08-19T11:16:39;8.85;;;3.25;;
43297;SDS011;28892;55.640;37.532;2022-08-19T11:19:06;7.80;;;2.40;;
43297;SDS011;28892;55.640;37.532;2022-08-19T11:21:35;12.07;;;2.88;;
43297;SDS011;28892;55.640;37.532;2022-08-19T11:26:33;6.90;;;3.50;;
43297;SDS011;28892;55.640;37.532;2022-08-19T11:29:00;8.73;;;3.20;;
43297;SDS011;28892;55.640;37.532;2022-08-19T11:31:28;8.00;;;3.42;;
43297;SDS011;28892;55.640;37.532;2022-08-19T11:33:56;3.05;;;2.70;;
43297;SDS011;28892;55.640;37.532;2022-08-19T11:36:23;11.52;;;3.10;;
43297;SDS011;28892;55.640;37.532;2022-08-19T11:38:49;6.95;;;2.75;;
43297;SDS011;28892;55.640;37.532;2022-08-19T11:41:15;7.70;;;3.10;;
43297;SDS011;28892;55.640;37.532;2022-08-19T11:43:43;5.80;;;2.83;;
43297;SDS011;28892;55.640;37.532;2022-08-19T11:46:10;6.65;;;2.95;;
43297;SDS011;28892;55.640;37.532;2022-08-19T11:48:37;5.50;;;2.95;;
43297;SDS011;28892;55.640;37.532;2022-08-19T11:51:04;9.60;;;3.83;;
43297;SDS011;28892;55.640;37.532;2022-08-19T11:53:34;4.32;;;2.95;;
43297;SDS011;28892;55.640;37.532;2022-08-19T11:56:00;5.13;;;3.17;;
43297;SDS011;28892;55.640;37.532;2022-08-19T11:58:26;9.70;;;3.03;;
43297;SDS011;28892;55.640;37.532;2022-08-19T12:00:52;4.38;;;2.90;;
43297;SDS011;28892;55.640;37.532;2022-08-19T12:03:18;6.05;;;3.30;;
43297;SDS011;28892;55.640;37.532;2022-08-19T12:05:44;6.80;;;3.22;;
43297;SDS011;28892;55.640;37.532;2022-08-19T12:08:11;6.40;;;2.88;;
43297;SDS011;28892;55.640;37.532;2022-08-19T12:10:38;8.88;;;3.20;;
43297;SDS011;28892;55.640;37.532;2022-08-19T12:13:06;8.52;;;3.35;;
43297;SDS011;28892;55.640;37.532;2022-08-19T12:15:38;6.45;;;2.67;;
43297;SDS011;28892;55.640;37.532;2022-08-19T12:18:06;7.07;;;3.30;;
43297;SDS011;28892;55.640;37.532;2022-08-19T12:20:37;9.43;;;4.32;;
43297;SDS011;28892;55.640;37.532;2022-08-19T12:23:05;13.27;;;3.95;;
43297;SDS011;28892;55.640;37.532;2022-08-19T12:25:32;8.25;;;3.58;;
43297;SDS011;28892;55.640;37.532;2022-08-19T12:27:59;6.57;;;3.60;;
43297;SDS011;28892;55.640;37.532;2022-08-19T12:30:25;10.95;;;3.60;;
43297;SDS011;28892;55.640;37.532;2022-08-19T12:32:51;8.88;;;3.28;;
43297;SDS011;28892;55.640;37.532;2022-08-19T12:35:17;8.48;;;3.40;;
43297;SDS011;28892;55.640;37.532;2022-08-19T12:37:45;7.38;;;3.30;;
43297;SDS011;28892;55.640;37.532;2022-08-19T12:40:13;3.70;;;3.13;;
43297;SDS011;28892;55.640;37.532;2022-08-19T12:42:41;4.07;;;3.38;;
43297;SDS011;28892;55.640;37.532;2022-08-19T12:45:11;6.10;;;3.25;;
43297;SDS011;28892;55.640;37.532;2022-08-19T12:47:40;5.07;;;3.35;;
43297;SDS011;28892;55.640;37.532;2022-08-19T12:50:06;6.20;;;3.33;;
43297;SDS011;28892;55.640;37.532;2022-08-19T12:52:34;10.07;;;3.58;;
43297;SDS011;28892;55.640;37.532;2022-08-19T12:55:07;7.85;;;3.92;;
43297;SDS011;28892;55.640;37.532;2022-08-19T12:57:34;9.85;;;3.10;;
43297;SDS011;28892;55.640;37.532;2022-08-19T13:00:03;8.38;;;3.50;;
43297;SDS011;28892;55.640;37.532;2022-08-19T13:02:38;6.25;;;3.58;;
43297;SDS011;28892;55.640;37.532;2022-08-19T13:05:10;5.78;;;3.38;;
43297;SDS011;28892;55.640;37.532;2022-08-19T13:07:38;6.20;;;3.88;;
43297;SDS011;28892;55.640;37.532;2022-08-19T13:10:06;11.68;;;4.50;;
43297;SDS011;28892;55.640;37.532;2022-08-19T13:12:33;7.00;;;3.60;;
43297;SDS011;28892;55.640;37.532;2022-08-19T13:14:59;9.00;;;3.22;;
43297;SDS011;28892;55.640;37.532;2022-08-19T13:17:25;7.38;;;3.95;;
43297;SDS011;28892;55.640;37.532;2022-08-19T13:19:50;9.68;;;3.80;;
43297;SDS011;28892;55.640;37.532;2022-08-19T13:22:16;7.00;;;3.60;;
43297;SDS011;28892;55.640;37.532;2022-08-19T13:24:42;5.90;;;3.70;;
43297;SDS011;28892;55.640;37.532;2022-08-19T13:27:08;6.25;;;4.78;;
43297;SDS011;28892;55.640;37.532;2022-08-19T13:29:39;8.63;;;4.20;;
43297;SDS011;28892;55.640;37.532;2022-08-19T13:32:24;8.98;;;4.40;;
43297;SDS011;28892;55.640;37.532;2022-08-19T13:35:08;10.73;;;4.70;;
43297;SDS011;28892;55.640;37.532;2022-08-19T13:37:34;10.07;;;4.95;;
43297;SDS011;28892;55.640;37.532;2022-08-19T13:42:46;9.45;;;4.22;;
43297;SDS011;28892;55.640;37.532;2022-08-19T13:45:14;8.23;;;5.50;;
43297;SDS011;28892;55.640;37.532;2022-08-19T13:47:45;11.83;;;9.77;;
43297;SDS011;28892;55.640;37.532;2022-08-19T13:50:13;18.73;;;10.77;;
43297;SDS011;28892;55.640;37.532;2022-08-19T13:52:40;14.48;;;11.25;;
43297;SDS011;28892;55.640;37.532;2022-08-19T13:55:08;13.32;;;12.07;;
43297;SDS011;28892;55.640;37.532;2022-08-19T13:57:36;17.08;;;11.70;;
43297;SDS011;28892;55.640;37.532;2022-08-19T14:00:07;14.48;;;11.98;;
43297;SDS011;28892;55.640;37.532;2022-08-19T14:02:39;12.80;;;9.98;;
43297;SDS011;28892;55.640;37.532;2022-08-19T14:05:07;12.55;;;8.93;;
43297;SDS011;28892;55.640;37.532;2022-08-19T14:07:35;11.98;;;9.73;;
43297;SDS011;28892;55.640;37.532;2022-08-19T14:10:02;13.35;;;9.30;;
43297;SDS011;28892;55.640;37.532;2022-08-19T14:12:29;17.02;;;10.73;;
43297;SDS011;28892;55.640;37.532;2022-08-19T14:14:57;14.05;;;12.60;;
43297;SDS011;28892;55.640;37.532;2022-08-19T14:17:23;16.27;;;12.65;;
43297;SDS011;28892;55.640;37.532;2022-08-19T14:19:50;18.08;;;13.10;;
43297;SDS011;28892;55.640;37.532;2022-08-19T14:22:22;19.95;;;13.40;;
43297;SDS011;28892;55.640;37.532;2022-08-19T14:24:47;18.13;;;12.82;;
43297;SDS011;28892;55.640;37.532;2022-08-19T14:27:13;15.70;;;12.38;;
43297;SDS011;28892;55.640;37.532;2022-08-19T14:29:39;14.32;;;11.00;;
43297;SDS011;28892;55.640;37.532;2022-08-19T14:32:05;15.43;;;11.02;;
43297;SDS011;28892;55.640;37.532;2022-08-19T14:34:31;18.88;;;10.50;;
43297;SDS011;28892;55.640;37.532;2022-08-19T14:36:59;14.38;;;10.40;;
43297;SDS011;28892;55.640;37.532;2022-08-19T14:39:24;12.10;;;10.20;;
43297;SDS011;28892;55.640;37.532;2022-08-19T14:41:50;14.70;;;9.52;;
43297;SDS011;28892;55.640;37.532;2022-08-19T14:44:16;13.07;;;9.68;;
43297;SDS011;28892;55.640;37.532;2022-08-19T14:46:41;19.58;;;15.13;;
43297;SDS011;28892;55.640;37.532;2022-08-19T14:49:07;17.77;;;14.35;;
43297;SDS011;28892;55.640;37.532;2022-08-19T14:51:33;19.45;;;15.00;;
43297;SDS011;28892;55.640;37.532;2022-08-19T14:53:58;18.40;;;13.65;;
43297;SDS011;28892;55.640;37.532;2022-08-19T14:56:26;20.33;;;13.52;;